Time;durP1;ratioP1;P1;durP2;ratioP2;P2;SDS_P1;SDS_P2;PMS_P1;PMS_P2;Temp;Humidity;BMP_temperature;BMP_pressure;BME280_temperature;BME280_humidity;BME280_pressure;Samples;Min_cycle;Max_cycle;Signal;HPM_P1;HPM_P2
2024/04/02 00:02:16;;;;;;;;;0.00;0.00;;;;;14.01;77.50;97810.25;6311073;20;2720174;-49
2024/04/02 00:04:43;;;;;;;;;0.00;0.00;;;;;13.75;79.07;97830.03;6294672;20;1800359;-45
2024/04/02 00:07:10;;;;;;;;;0.00;0.00;;;;;13.38;81.06;97825.75;6310480;20;2727369;-46
2024/04/02 00:09:37;;;;;;;;;0.00;0.00;;;;;13.42;80.92;97828.97;6293530;20;1799073;-47
2024/04/02 00:12:05;;;;;;;;;0.00;0.00;;;;;13.50;80.72;97837.09;6327061;20;1803500;-48
2024/04/02 00:14:32;;;;;;;;;1.50;1.00;;;;;13.24;82.06;97834.34;6311078;20;2731690;-46
2024/04/02 00:16:59;;;;;;;;;1.25;0.50;;;;;13.16;82.76;97839.69;6293059;20;1803653;-49
2024/04/02 00:19:27;;;;;;;;;2.00;0.00;;;;;13.07;83.41;97811.00;6324560;20;1803572;-46
2024/04/02 00:21:54;;;;;;;;;3.25;0.25;;;;;13.12;83.32;97819.47;6328440;20;1803523;-46
2024/04/02 00:24:21;;;;;;;;;0.50;0.50;;;;;13.06;83.76;97809.28;6325424;20;1803487;-46
2024/04/02 00:26:49;;;;;;;;;1.00;0.00;;;;;13.18;83.58;97794.56;6324615;20;1803525;-48
2024/04/02 00:29:17;;;;;;;;;1.00;1.00;;;;;13.01;84.50;97785.53;6312294;20;2729447;-46
2024/04/02 00:31:44;;;;;;;;;0.00;0.00;;;;;12.89;84.94;97766.06;6294550;20;1802489;-46
2024/04/02 00:34:12;;;;;;;;;1.00;0.00;;;;;12.86;85.18;97776.31;6327362;20;1803536;-46
2024/04/02 00:36:38;;;;;;;;;1.00;0.00;;;;;12.81;85.54;97803.72;6308579;20;2729492;-48
2024/04/02 00:39:06;;;;;;;;;0.00;0.00;;;;;12.87;85.67;97781.53;6293479;20;1799265;-48
2024/04/02 00:41:35;;;;;;;;;2.00;0.00;;;;;12.69;85.96;97780.69;6325460;20;1804554;-47
2024/04/02 00:44:02;;;;;;;;;2.00;0.00;;;;;12.74;86.64;97816.97;6327195;20;1803994;-47
2024/04/02 00:46:29;;;;;;;;;0.00;0.00;;;;;12.72;87.26;97845.03;6326477;20;1803550;-45
2024/04/02 00:48:57;;;;;;;;;0.50;0.00;;;;;12.71;87.13;97865.72;6325280;20;1803504;-48
2024/04/02 00:51:25;;;;;;;;;1.00;1.00;;;;;12.48;88.17;97865.31;6326619;20;1807177;-48
2024/04/02 00:53:52;;;;;;;;;1.00;0.00;;;;;12.42;88.30;97868.59;6309770;20;2463847;-48
2024/04/02 00:56:19;;;;;;;;;0.75;0.00;;;;;12.32;88.85;97869.66;6293216;20;1802548;-46
2024/04/02 00:58:46;;;;;;;;;0.00;0.00;;;;;12.50;87.61;97874.06;6325455;20;1804101;-45
2024/04/02 01:01:14;;;;;;;;;0.00;0.00;;;;;12.38;88.82;97875.31;6325615;20;1809763;-46
2024/04/02 01:03:41;;;;;;;;;0.00;0.00;;;;;12.43;88.12;97883.78;6326677;20;1804302;-45
2024/04/02 01:06:09;;;;;;;;;0.00;0.00;;;;;12.36;88.44;97874.59;6325869;20;1802472;-48
2024/04/02 01:08:35;;;;;;;;;1.00;0.00;;;;;12.44;88.69;97887.31;6310751;20;2727454;-49
2024/04/02 01:11:03;;;;;;;;;0.00;0.00;;;;;12.34;89.39;97914.25;6292895;20;1809755;-48
2024/04/02 01:13:30;;;;;;;;;0.00;0.00;;;;;12.45;88.70;97930.22;6323269;20;1807787;-47
2024/04/02 01:16:04;;;;;;;;;0.00;0.00;;;;;12.49;89.54;97934.31;6309519;20;2727372;-50
2024/04/02 01:18:31;;;;;;;;;0.00;0.00;;;;;12.26;91.98;97917.69;6291180;20;1803497;-46
2024/04/02 01:20:58;;;;;;;;;0.00;0.00;;;;;12.11;96.10;97905.72;6311220;20;2729715;-48
2024/04/02 01:23:25;;;;;;;;;0.00;0.00;;;;;12.04;100.00;97899.25;6293322;20;1803524;-45
2024/04/02 01:25:53;;;;;;;;;0.00;0.00;;;;;11.86;100.00;97893.78;6324471;20;1802502;-48
2024/04/02 01:28:20;;;;;;;;;1.75;0.00;;;;;11.81;100.00;97893.34;6323111;20;1803492;-47
2024/04/02 01:30:47;;;;;;;;;0.25;0.25;;;;;11.85;100.00;97916.28;6322288;20;1802517;-50
2024/04/02 01:33:16;;;;;;;;;1.00;0.00;;;;;11.77;100.00;97934.97;6324348;20;1799722;-48
2024/04/02 01:35:43;;;;;;;;;0.00;0.00;;;;;11.74;100.00;97952.25;6322889;20;1809699;-50
2024/04/02 01:38:11;;;;;;;;;0.00;0.00;;;;;11.80;100.00;97915.88;6324084;20;1802469;-47
2024/04/02 01:40:38;;;;;;;;;0.00;0.00;;;;;11.83;100.00;97918.25;6326189;20;1803945;-47
2024/04/02 01:43:07;;;;;;;;;0.00;0.00;;;;;11.70;100.00;97912.34;6324409;20;1805539;-50
2024/04/02 01:45:34;;;;;;;;;0.00;0.00;;;;;11.62;100.00;97886.19;6324655;20;1802503;-45
2024/04/02 01:48:04;;;;;;;;;0.00;0.00;;;;;11.57;100.00;97918.88;6325179;20;1803553;-48
2024/04/02 01:50:32;;;;;;;;;0.00;0.00;;;;;11.83;100.00;97934.41;6325122;20;1809724;-47
2024/04/02 01:52:59;;;;;;;;;1.25;0.00;;;;;11.60;100.00;97932.03;6324476;20;1805601;-48
2024/04/02 01:55:26;;;;;;;;;0.00;0.00;;;;;11.49;100.00;97942.94;6323942;20;1803463;-46
2024/04/02 01:57:54;;;;;;;;;0.00;0.00;;;;;11.52;100.00;97929.22;6323808;20;1803554;-45
2024/04/02 02:00:21;;;;;;;;;0.00;0.00;;;;;11.41;100.00;97906.03;6320066;20;1807794;-46
2024/04/02 02:02:50;;;;;;;;;0.00;0.00;;;;;11.37;100.00;97895.72;6319565;20;1809828;-45
2024/04/02 02:05:18;;;;;;;;;0.00;0.00;;;;;11.40;100.00;97908.84;6320131;20;1809791;-48
2024/04/02 02:07:46;;;;;;;;;0.00;0.00;;;;;11.43;100.00;97936.31;6320907;20;1805658;-49
2024/04/02 02:10:13;;;;;;;;;0.00;0.00;;;;;11.50;100.00;97928.50;6322414;20;1809805;-48
2024/04/02 02:12:41;;;;;;;;;0.00;0.00;;;;;11.54;100.00;97934.47;6319948;20;1803474;-44
2024/04/02 02:15:08;;;;;;;;;0.00;0.00;;;;;11.57;100.00;97935.00;6324920;20;1799413;-45
2024/04/02 02:17:36;;;;;;;;;0.00;0.00;;;;;11.43;100.00;97938.16;6323523;20;1805578;-46
2024/04/02 02:20:05;;;;;;;;;0.00;0.00;;;;;11.43;100.00;97949.75;6324751;20;1809766;-48
2024/04/02 02:22:34;;;;;;;;;0.00;0.00;;;;;11.41;100.00;97961.63;6323404;20;1803487;-47
2024/04/02 02:25:02;;;;;;;;;0.00;0.00;;;;;11.29;100.00;97946.63;6322428;20;1803463;-45
2024/04/02 02:27:29;;;;;;;;;0.00;0.00;;;;;11.38;100.00;97956.53;6323889;20;1803535;-45
2024/04/02 02:29:57;;;;;;;;;0.00;0.00;;;;;11.28;100.00;97934.19;6323093;20;1807667;-48
2024/04/02 02:32:24;;;;;;;;;0.00;0.00;;;;;11.32;100.00;97930.22;6324077;20;1803559;-45
2024/04/02 02:34:51;;;;;;;;;0.00;0.00;;;;;11.46;100.00;97892.19;6321442;20;1805391;-47
2024/04/02 02:37:19;;;;;;;;;0.00;0.00;;;;;11.42;100.00;97877.31;6320853;20;1802477;-47
2024/04/02 02:39:46;;;;;;;;;0.00;0.00;;;;;11.40;100.00;97879.28;6323695;20;1803500;-46
2024/04/02 02:42:13;;;;;;;;;0.00;0.00;;;;;11.38;100.00;97898.25;6321446;20;1802172;-46
2024/04/02 02:44:41;;;;;;;;;0.00;0.00;;;;;11.20;100.00;97902.66;6320225;20;1805571;-49
2024/04/02 02:47:08;;;;;;;;;0.00;0.00;;;;;11.25;100.00;97902.25;6322563;20;1791984;-45
2024/04/02 02:49:35;;;;;;;;;0.00;0.00;;;;;11.32;100.00;97911.41;6323390;20;1802914;-46
2024/04/02 02:52:03;;;;;;;;;0.00;0.00;;;;;11.23;100.00;97914.97;6326389;20;1805610;-46
2024/04/02 02:54:30;;;;;;;;;0.00;0.00;;;;;11.26;100.00;97910.16;6324552;20;1797263;-48
2024/04/02 02:56:58;;;;;;;;;0.00;0.00;;;;;11.21;100.00;97913.25;6326699;20;1802467;-46
2024/04/02 02:59:25;;;;;;;;;0.00;0.00;;;;;11.16;100.00;97937.03;6326276;20;1803489;-46
2024/04/02 03:01:52;;;;;;;;;0.00;0.00;;;;;11.17;100.00;97959.38;6330107;20;1803195;-46
2024/04/02 03:04:20;;;;;;;;;0.00;0.00;;;;;11.28;100.00;97982.56;6326219;20;1803500;-46
2024/04/02 03:06:47;;;;;;;;;0.00;0.00;;;;;11.20;100.00;97991.31;6328057;20;1803476;-49
2024/04/02 03:09:15;;;;;;;;;0.00;0.00;;;;;11.05;100.00;97993.53;6327785;20;1798736;-44
2024/04/02 03:11:42;;;;;;;;;0.00;0.00;;;;;11.02;100.00;97996.53;6329493;20;1809811;-46
2024/04/02 03:14:10;;;;;;;;;0.00;0.00;;;;;11.23;100.00;98009.00;6328242;20;1803528;-46
2024/04/02 03:16:37;;;;;;;;;0.00;0.00;;;;;11.09;100.00;97999.50;6330700;20;1803502;-44
2024/04/02 03:19:04;;;;;;;;;0.00;0.00;;;;;11.08;100.00;98011.22;6327578;20;1804332;-44
2024/04/02 03:21:32;;;;;;;;;0.00;0.00;;;;;10.94;100.00;98013.31;6329489;20;1800298;-46
2024/04/02 03:23:59;;;;;;;;;0.75;0.75;;;;;10.85;100.00;98015.97;6328493;20;1804547;-47
2024/04/02 03:26:26;;;;;;;;;0.67;0.67;;;;;10.84;100.00;98023.19;6328833;20;1799235;-46
2024/04/02 03:28:54;;;;;;;;;0.00;0.00;;;;;10.82;100.00;98024.31;6327147;20;1804692;-47
2024/04/02 03:31:21;;;;;;;;;1.00;1.00;;;;;10.65;100.00;98023.97;6327773;20;1802396;-48
2024/04/02 03:33:48;;;;;;;;;1.00;1.00;;;;;10.64;100.00;98022.28;6327620;20;1809754;-46
2024/04/02 03:36:16;;;;;;;;;0.50;0.50;;;;;10.51;100.00;98024.38;6328119;20;1809735;-48
2024/04/02 03:38:43;;;;;;;;;1.00;1.00;;;;;10.53;100.00;98031.28;6329978;20;1802933;-45
2024/04/02 03:41:16;;;;;;;;;0.25;0.25;;;;;10.60;100.00;98030.75;6326636;20;1806600;-50
2024/04/02 03:43:43;;;;;;;;;0.25;0.25;;;;;10.33;100.00;98027.66;6328921;20;1807666;-45
2024/04/02 03:46:12;;;;;;;;;1.00;1.00;;;;;10.41;100.00;98039.56;6325742;20;1805526;-46
2024/04/02 03:48:39;;;;;;;;;3.00;1.00;;;;;10.53;100.00;98042.03;6311052;20;2731551;-47
2024/04/02 03:51:06;;;;;;;;;1.00;1.00;;;;;10.35;100.00;98050.81;6327664;20;1805573;-47
2024/04/02 03:53:33;;;;;;;;;3.75;1.00;;;;;10.55;100.00;98041.88;6326260;20;1800314;-44
2024/04/02 03:56:03;;;;;;;;;1.00;1.00;;;;;10.30;100.00;98035.97;6326545;20;1809732;-46
2024/04/02 03:58:31;;;;;;;;;0.75;0.75;;;;;10.11;100.00;98031.34;6326997;20;1804534;-46
2024/04/02 04:00:59;;;;;;;;;0.00;0.00;;;;;10.26;100.00;98029.13;6327283;20;1803475;-50
2024/04/02 04:03:27;;;;;;;;;0.00;0.00;;;;;10.14;100.00;98023.97;6327266;20;1800404;-51
2024/04/02 04:06:06;;;;;;;;;0.00;0.00;;;;;10.18;100.00;98031.63;6326549;20;1802454;-47
2024/04/02 04:08:34;;;;;;;;;0.00;0.00;;;;;10.13;100.00;98030.34;6327247;20;1807739;-49
2024/04/02 04:11:03;;;;;;;;;0.00;0.00;;;;;10.14;100.00;98040.06;6326274;20;1807648;-46
2024/04/02 04:13:31;;;;;;;;;0.00;0.00;;;;;10.21;100.00;98038.56;6324844;20;1809741;-48
2024/04/02 04:16:01;;;;;;;;;0.25;0.00;;;;;10.14;100.00;98040.94;6326514;20;1802378;-47
2024/04/02 04:18:29;;;;;;;;;0.00;0.00;;;;;10.08;100.00;98044.13;6324790;20;1807704;-47
2024/04/02 04:21:02;;;;;;;;;0.00;0.00;;;;;10.18;100.00;98054.94;6327576;20;1809738;-52
2024/04/02 04:23:31;;;;;;;;;1.00;0.00;;;;;10.12;100.00;98056.31;6325839;20;1803492;-46
2024/04/02 04:26:06;;;;;;;;;0.00;0.00;;;;;10.27;100.00;98052.34;6325259;20;1803531;-49
2024/04/02 04:28:34;;;;;;;;;0.00;0.00;;;;;10.08;100.00;98055.75;6325772;20;1807626;-49
2024/04/02 04:31:03;;;;;;;;;0.75;0.75;;;;;10.10;100.00;98059.13;6328464;20;1809763;-45
2024/04/02 04:33:31;;;;;;;;;0.00;0.00;;;;;10.07;100.00;98056.69;6326234;20;1802874;-46
2024/04/02 04:35:59;;;;;;;;;1.00;1.00;;;;;10.24;100.00;98068.69;6326046;20;1806675;-48
2024/04/02 04:38:28;;;;;;;;;0.00;0.00;;;;;10.14;100.00;98074.94;6326131;20;1804206;-49
2024/04/02 04:40:55;;;;;;;;;0.00;0.00;;;;;10.05;100.00;98077.44;6328565;20;1802928;-49
2024/04/02 04:43:23;;;;;;;;;1.00;0.00;;;;;10.09;100.00;98091.44;6325622;20;1805540;-49
2024/04/02 04:46:00;;;;;;;;;0.00;0.00;;;;;9.95;100.00;98089.06;6324954;20;1809750;-47
2024/04/02 04:48:27;;;;;;;;;0.00;0.00;;;;;9.98;100.00;98100.41;6325615;20;1809892;-48
2024/04/02 04:51:05;;;;;;;;;0.00;0.00;;;;;9.96;100.00;98090.78;6326489;20;1803498;-48
2024/04/02 04:53:33;;;;;;;;;0.00;0.00;;;;;10.12;100.00;98109.94;6325386;20;1809735;-46
2024/04/02 04:56:04;;;;;;;;;0.25;0.25;;;;;9.95;100.00;98116.72;6326008;20;1809724;-46
2024/04/02 04:58:34;;;;;;;;;0.50;0.50;;;;;10.04;100.00;98117.78;6323293;20;1803483;-46
2024/04/02 05:01:05;;;;;;;;;1.00;1.00;;;;;9.83;100.00;98123.13;6323900;20;1814002;-49
2024/04/02 05:03:32;;;;;;;;;2.67;0.00;;;;;9.95;100.00;98131.97;6307807;20;3444043;-48
2024/04/02 05:06:06;;;;;;;;;1.00;1.00;;;;;9.96;100.00;98139.88;6323240;20;1805614;-46
2024/04/02 05:08:35;;;;;;;;;1.00;1.00;;;;;9.82;100.00;98148.22;6323436;20;1803553;-52
2024/04/02 05:11:06;;;;;;;;;0.75;0.75;;;;;9.76;100.00;98149.59;6325300;20;1803428;-53
2024/04/02 05:13:34;;;;;;;;;2.00;2.00;;;;;9.79;100.00;98153.84;6324167;20;1815069;-52
2024/04/02 05:16:02;;;;;;;;;2.50;1.00;;;;;9.99;100.00;98161.06;6323983;20;1803445;-51
2024/04/02 05:18:29;;;;;;;;;3.50;2.00;;;;;9.95;100.00;98158.78;6323067;20;1797204;-47
2024/04/02 05:20:57;;;;;;;;;4.00;3.00;;;;;9.95;100.00;98164.13;6324597;20;1841015;-50
2024/04/02 05:23:26;;;;;;;;;2.00;2.00;;;;;9.81;100.00;98165.28;6324555;20;1811869;-50
2024/04/02 05:26:00;;;;;;;;;2.00;2.00;;;;;9.72;100.00;98177.63;6307697;20;2746143;-46
2024/04/02 05:28:27;;;;;;;;;1.00;1.00;;;;;9.82;100.00;98186.63;6290653;20;1803398;-51
2024/04/02 05:30:55;;;;;;;;;3.25;2.00;;;;;9.93;100.00;98198.28;6322918;20;1816098;-49
2024/04/02 05:33:23;;;;;;;;;2.00;2.00;;;;;9.84;100.00;98206.09;6321844;20;1818180;-48
2024/04/02 05:35:50;;;;;;;;;1.75;1.75;;;;;9.75;100.00;98203.34;6322492;20;1807588;-47
2024/04/02 05:38:18;;;;;;;;;2.00;1.00;;;;;9.95;100.00;98207.88;6323072;20;1803521;-48
2024/04/02 05:40:45;;;;;;;;;1.25;1.25;;;;;10.08;100.00;98213.06;6326633;20;1811956;-47
2024/04/02 05:43:12;;;;;;;;;1.50;1.50;;;;;10.10;100.00;98211.97;6324342;20;1807821;-46
2024/04/02 05:45:40;;;;;;;;;3.00;3.00;;;;;10.27;100.00;98223.16;6324051;20;1793013;-48
2024/04/02 05:48:07;;;;;;;;;4.00;3.00;;;;;9.97;100.00;98226.53;6306949;20;2743063;-51
2024/04/02 05:50:35;;;;;;;;;2.00;2.00;;;;;9.95;100.00;98228.47;6291941;20;1811890;-49
2024/04/02 05:53:02;;;;;;;;;2.00;2.00;;;;;9.89;100.00;98228.00;6324810;20;1813926;-47
2024/04/02 05:55:29;;;;;;;;;3.00;3.00;;;;;9.98;100.00;98241.63;6324394;20;1814019;-51
2024/04/02 05:57:57;;;;;;;;;1.00;1.00;;;;;9.86;100.00;98238.13;6323958;20;1807622;-48
2024/04/02 06:00:26;;;;;;;;;4.00;2.50;;;;;9.99;100.00;98254.06;6308815;20;2735725;-47
2024/04/02 06:02:52;;;;;;;;;2.00;2.00;;;;;10.01;100.00;98260.16;6306586;20;2752339;-47
2024/04/02 06:05:19;;;;;;;;;3.00;3.00;;;;;9.91;100.00;98259.22;6275488;20;2739919;-50
2024/04/02 06:07:46;;;;;;;;;2.00;2.00;;;;;10.03;100.00;98269.78;6323641;20;1813501;-49
2024/04/02 06:10:13;;;;;;;;;2.00;2.00;;;;;9.86;100.00;98276.50;6307405;20;2744177;-49
2024/04/02 06:12:43;;;;;;;;;1.00;1.00;;;;;10.08;100.00;98283.69;6276621;20;2475340;-49
2024/04/02 06:15:11;;;;;;;;;1.00;1.00;;;;;9.87;100.00;98286.28;6319385;20;1805610;-49
2024/04/02 06:17:39;;;;;;;;;2.75;2.75;;;;;9.89;100.00;98292.34;6317057;20;1816103;-50
2024/04/02 06:20:06;;;;;;;;;2.50;2.00;;;;;10.04;100.00;98292.94;6302302;20;2744630;-50
2024/04/02 06:22:35;;;;;;;;;2.00;2.00;;;;;9.98;100.00;98289.88;6317462;20;1811956;-51
2024/04/02 06:25:03;;;;;;;;;0.00;0.00;;;;;9.93;100.00;98294.81;6314513;20;1803522;-51
2024/04/02 06:27:33;;;;;;;;;2.00;2.00;;;;;9.98;100.00;98300.63;6342190;20;2583683;-50
2024/04/02 06:30:00;;;;;;;;;0.75;0.75;;;;;10.03;100.00;98306.47;6314870;20;1802892;-48
2024/04/02 06:32:27;;;;;;;;;1.00;1.00;;;;;10.03;100.00;98312.69;6315321;20;1802408;-50
2024/04/02 06:34:55;;;;;;;;;1.00;1.00;;;;;10.03;100.00;98310.00;6312894;20;1809808;-51
2024/04/02 06:37:22;;;;;;;;;1.00;1.00;;;;;9.91;100.00;98313.69;6316959;20;1801076;-47
2024/04/02 06:39:49;;;;;;;;;1.00;1.00;;;;;9.92;100.00;98323.41;6313996;20;1803525;-49
2024/04/02 06:42:17;;;;;;;;;0.50;0.50;;;;;10.25;100.00;98321.66;6316430;20;1801383;-51
2024/04/02 06:44:44;;;;;;;;;0.00;0.00;;;;;10.23;100.00;98329.81;6316058;20;1801904;-50
2024/04/02 06:47:11;;;;;;;;;0.75;0.75;;;;;10.52;100.00;98331.97;6311929;20;1803659;-48
2024/04/02 06:49:39;;;;;;;;;1.75;1.00;;;;;10.53;100.00;98341.72;6312949;20;1809767;-47
2024/04/02 06:52:07;;;;;;;;;1.00;1.00;;;;;10.45;100.00;98338.81;6314194;20;1807780;-52
2024/04/02 06:54:34;;;;;;;;;0.00;0.00;;;;;10.51;100.00;98349.06;6318272;20;1809877;-52
2024/04/02 06:57:01;;;;;;;;;0.00;0.00;;;;;10.59;100.00;98346.59;6316998;20;1799286;-51
2024/04/02 06:59:29;;;;;;;;;0.50;0.50;;;;;10.59;100.00;98349.28;6314151;20;1808121;-52
2024/04/02 07:01:57;;;;;;;;;1.00;1.00;;;;;10.46;100.00;98362.84;6315422;20;1806733;-52
2024/04/02 07:04:24;;;;;;;;;0.50;0.50;;;;;10.29;100.00;98356.19;6316101;20;1810232;-52
2024/04/02 07:06:51;;;;;;;;;0.50;0.50;;;;;10.31;100.00;98366.78;6315871;20;1805609;-51
2024/04/02 07:09:18;;;;;;;;;1.00;1.00;;;;;10.68;100.00;98372.66;6296820;20;3432608;-50
2024/04/02 07:11:45;;;;;;;;;1.00;1.00;;;;;10.64;100.00;98363.16;6317682;20;1802998;-50
2024/04/02 07:14:13;;;;;;;;;0.50;0.50;;;;;10.71;100.00;98366.19;6316992;20;1804572;-47
2024/04/02 07:16:40;;;;;;;;;1.00;1.00;;;;;10.56;100.00;98365.63;6322803;20;1803453;-46
2024/04/02 07:19:07;;;;;;;;;1.00;1.00;;;;;10.83;100.00;98375.91;6322243;20;1803534;-51
2024/04/02 07:21:35;;;;;;;;;1.00;1.00;;;;;10.92;100.00;98379.63;6325142;20;1799307;-47
2024/04/02 07:24:02;;;;;;;;;1.00;1.00;;;;;11.08;100.00;98385.41;6324447;20;1809173;-50
2024/04/02 07:26:30;;;;;;;;;1.00;1.00;;;;;11.05;100.00;98390.19;6321117;20;1800397;-47
2024/04/02 07:28:58;;;;;;;;;0.75;0.75;;;;;11.10;100.00;98401.41;6321388;20;1800401;-47
2024/04/02 07:31:25;;;;;;;;;1.00;1.00;;;;;11.17;100.00;98411.50;6322467;20;1802481;-46
2024/04/02 07:33:55;;;;;;;;;1.00;1.00;;;;;11.41;100.00;98405.03;6348608;20;2731537;-46
2024/04/02 07:36:22;;;;;;;;;1.00;1.00;;;;;11.54;100.00;98408.38;6327810;20;1803556;-47
2024/04/02 07:38:50;;;;;;;;;1.00;1.00;;;;;11.77;100.00;98424.34;6326075;20;1803501;-46
2024/04/02 07:41:17;;;;;;;;;1.00;1.00;;;;;11.82;100.00;98427.47;6330726;20;1804573;-47
2024/04/02 07:43:44;;;;;;;;;2.50;0.00;;;;;11.81;100.00;98428.47;6327810;20;1802584;-51
2024/04/02 07:46:12;;;;;;;;;1.00;1.00;;;;;12.06;100.00;98436.16;6328012;20;1809805;-51
2024/04/02 07:48:38;;;;;;;;;2.00;2.00;;;;;12.04;100.00;98432.72;6310594;20;2748298;-51
2024/04/02 07:51:10;;;;;;;;;1.25;1.25;;;;;12.36;97.12;98447.03;6297523;20;1803531;-47
2024/04/02 07:53:38;;;;;;;;;1.00;1.00;;;;;12.63;97.20;98465.25;6328506;20;1799743;-50
2024/04/02 07:56:05;;;;;;;;;1.00;1.00;;;;;12.18;96.45;98462.94;6327491;20;1800440;-45
2024/04/02 07:58:32;;;;;;;;;1.00;1.00;;;;;12.45;96.58;98475.81;6313632;20;2724367;-49
2024/04/02 08:01:00;;;;;;;;;1.00;1.00;;;;;12.18;96.61;98482.63;6296774;20;1809141;-45
2024/04/02 08:03:27;;;;;;;;;2.00;1.50;;;;;12.44;94.43;98474.97;6328619;20;1804881;-49
2024/04/02 08:05:58;;;;;;;;;1.00;1.00;;;;;12.27;92.66;98487.22;6311609;20;2728490;-49
2024/04/02 08:08:26;;;;;;;;;1.25;1.25;;;;;12.26;92.09;98490.88;6296537;20;1798290;-49
2024/04/02 08:10:53;;;;;;;;;1.25;1.25;;;;;12.68;92.10;98516.84;6327465;20;1803484;-47
2024/04/02 08:13:20;;;;;;;;;2.00;2.00;;;;;12.40;89.75;98500.47;6329346;20;1803622;-49
2024/04/02 08:15:48;;;;;;;;;2.00;2.00;;;;;12.49;87.41;98518.47;6312181;20;2741958;-51
2024/04/02 08:18:15;;;;;;;;;3.50;1.00;;;;;12.61;87.40;98515.69;6297098;20;1799368;-46
2024/04/02 08:20:42;;;;;;;;;2.00;2.00;;;;;12.57;88.06;98522.34;6329587;20;1805691;-49
2024/04/02 08:23:10;;;;;;;;;1.00;1.00;;;;;12.73;85.98;98519.97;6326940;20;1803531;-52
2024/04/02 08:25:37;;;;;;;;;1.00;1.00;;;;;12.76;84.10;98524.25;6328077;20;1799371;-50
2024/04/02 08:28:06;;;;;;;;;0.00;0.00;;;;;12.52;83.25;98523.59;6326407;20;1804700;-50
2024/04/02 08:30:33;;;;;;;;;0.00;0.00;;;;;12.65;83.49;98542.22;6328407;20;1800354;-47
2024/04/02 08:33:00;;;;;;;;;1.00;1.00;;;;;12.71;83.17;98533.56;6329110;20;1803020;-51
2024/04/02 08:35:27;;;;;;;;;1.50;1.50;;;;;13.13;82.90;98552.28;6325869;20;1802482;-50
2024/04/02 08:37:55;;;;;;;;;1.00;1.00;;;;;12.92;81.07;98544.28;6327583;20;1803532;-49
2024/04/02 08:40:26;;;;;;;;;1.25;1.25;;;;;12.67;82.80;98566.31;6327222;20;1802906;-47
2024/04/02 08:43:09;;;;;;;;;1.00;1.00;;;;;12.84;81.50;98543.25;6325932;20;1800471;-48
2024/04/02 08:45:37;;;;;;;;;1.25;1.25;;;;;12.65;81.72;98562.91;6328463;20;1798367;-51
2024/04/02 08:48:06;;;;;;;;;1.00;1.00;;;;;12.95;80.69;98572.78;6324426;20;1786888;-47
2024/04/02 08:50:33;;;;;;;;;1.00;1.00;;;;;12.86;79.42;98585.25;6328328;20;1802272;-47
2024/04/02 08:53:01;;;;;;;;;1.50;1.00;;;;;13.01;79.42;98574.94;6313707;20;2727447;-48
2024/04/02 08:55:28;;;;;;;;;1.25;0.75;;;;;13.20;79.62;98582.22;6297412;20;1811826;-46
2024/04/02 08:57:57;;;;;;;;;1.50;1.50;;;;;13.29;79.36;98594.91;6312765;20;2735691;-49
2024/04/02 09:00:24;;;;;;;;;2.00;0.67;;;;;13.46;77.22;98606.88;6281637;20;3437777;-50
2024/04/02 09:02:53;;;;;;;;;1.00;1.00;;;;;13.48;77.11;98612.09;6281468;20;2727428;-46
2024/04/02 09:05:21;;;;;;;;;0.75;0.75;;;;;13.21;76.63;98610.88;6296317;20;1803489;-47
2024/04/02 09:07:48;;;;;;;;;2.00;2.00;;;;;13.23;77.50;98629.63;6307900;20;2739922;-46
2024/04/02 09:10:14;;;;;;;;;1.00;1.00;;;;;13.49;77.09;98619.22;6281626;20;2733632;-48
2024/04/02 09:12:42;;;;;;;;;1.00;1.00;;;;;13.50;76.22;98637.94;6294782;20;1804584;-47
2024/04/02 09:15:09;;;;;;;;;0.75;0.75;;;;;13.11;76.10;98637.81;6327863;20;1804565;-49
2024/04/02 09:17:37;;;;;;;;;0.75;0.75;;;;;13.23;75.60;98651.19;6325229;20;1800424;-47
2024/04/02 09:20:05;;;;;;;;;0.00;0.00;;;;;13.44;74.35;98659.22;6325646;20;1807671;-50
2024/04/02 09:22:33;;;;;;;;;0.50;0.50;;;;;13.27;75.67;98663.41;6326879;20;1800568;-46
2024/04/02 09:25:00;;;;;;;;;0.00;0.00;;;;;13.57;74.91;98676.00;6325787;20;1802967;-50
2024/04/02 09:27:27;;;;;;;;;1.00;1.00;;;;;13.38;74.82;98676.81;6308534;20;2735753;-52
2024/04/02 09:29:54;;;;;;;;;1.50;1.50;;;;;13.81;74.09;98684.56;6296095;20;1809779;-47
2024/04/02 09:32:24;;;;;;;;;1.00;1.00;;;;;13.87;72.73;98682.31;6311078;20;2727418;-49
2024/04/02 09:34:53;;;;;;;;;1.00;1.00;;;;;14.33;71.44;98681.63;6279769;20;2726409;-48
2024/04/02 09:37:36;;;;;;;;;1.00;1.00;;;;;14.44;71.37;98691.41;6280974;20;2724244;-49
2024/04/02 09:40:04;;;;;;;;;2.00;2.00;;;;;14.30;70.62;98706.22;6277245;20;2744024;-49
2024/04/02 09:42:33;;;;;;;;;2.00;2.00;;;;;14.39;69.27;98704.50;6278715;20;2747216;-46
2024/04/02 09:45:04;;;;;;;;;2.00;2.00;;;;;14.50;69.09;98707.88;6278531;20;2739862;-49
2024/04/02 09:47:33;;;;;;;;;1.00;1.00;;;;;15.30;66.03;98716.56;6294249;20;1798315;-49
2024/04/02 09:50:01;;;;;;;;;3.00;2.00;;;;;15.31;66.40;98718.25;6309295;20;2735767;-51
2024/04/02 09:52:27;;;;;;;;;3.00;2.00;;;;;14.91;67.50;98722.09;6277320;20;2742074;-51
2024/04/02 09:54:56;;;;;;;;;2.00;2.00;;;;;15.68;66.41;98730.06;6279361;20;2744048;-48
2024/04/02 09:57:24;;;;;;;;;1.50;1.50;;;;;15.74;64.35;98732.19;6277655;20;2742179;-52
2024/04/02 09:59:50;;;;;;;;;3.00;2.00;;;;;15.52;64.40;98726.13;6277916;20;2745106;-49
2024/04/02 10:02:26;;;;;;;;;1.00;1.00;;;;;15.83;64.10;98723.16;6278098;20;2724242;-49
2024/04/02 10:04:55;;;;;;;;;1.00;1.00;;;;;15.74;64.85;98733.03;6281235;20;2717986;-47
2024/04/02 10:07:29;;;;;;;;;1.00;1.00;;;;;15.41;63.43;98736.31;6279093;20;2729553;-48
2024/04/02 10:09:58;;;;;;;;;1.00;1.00;;;;;15.23;64.34;98736.22;6279814;20;2727565;-48
2024/04/02 10:12:33;;;;;;;;;0.00;0.00;;;;;15.38;64.97;98750.97;6281321;20;2731658;-47
2024/04/02 10:15:07;;;;;;;;;0.75;0.75;;;;;15.35;62.95;98735.06;6293577;20;1803516;-46
2024/04/02 10:17:38;;;;;;;;;0.00;0.00;;;;;15.41;62.27;98747.97;6311549;20;2731526;-50
2024/04/02 10:20:30;;;;;;;;;1.00;1.00;;;;;15.23;63.72;98747.03;6279753;20;2727396;-52
2024/04/02 10:22:59;;;;;;;;;1.00;1.00;;;;;14.86;63.96;98753.25;6277721;20;2726339;-47
2024/04/02 10:25:31;;;;;;;;;1.00;1.00;;;;;15.49;62.44;98758.06;6279271;20;2727389;-52
2024/04/02 10:27:59;;;;;;;;;1.00;1.00;;;;;15.67;61.71;98755.44;6278375;20;2726344;-50
2024/04/02 10:30:28;;;;;;;;;1.00;1.00;;;;;15.75;61.32;98755.56;6279855;20;2723239;-47
2024/04/02 10:32:56;;;;;;;;;0.00;0.00;;;;;16.29;61.61;98759.19;6279483;20;2722242;-49
2024/04/02 10:35:28;;;;;;;;;1.00;1.00;;;;;15.97;60.62;98762.41;6278239;20;2722157;-47
2024/04/02 10:37:57;;;;;;;;;0.00;0.00;;;;;15.80;58.93;98762.22;6278709;20;2726323;-48
2024/04/02 10:40:26;;;;;;;;;1.00;0.00;;;;;15.77;58.92;98762.53;6278541;20;2735713;-49
2024/04/02 10:42:53;;;;;;;;;1.00;1.00;;;;;15.48;59.92;98772.56;6278656;20;2729497;-49
2024/04/02 10:45:20;;;;;;;;;0.75;0.75;;;;;15.71;60.31;98775.78;6293392;20;1798915;-47
2024/04/02 10:47:52;;;;;;;;;0.00;0.00;;;;;15.97;59.66;98774.06;6309084;20;2727388;-50
2024/04/02 10:50:25;;;;;;;;;1.00;1.00;;;;;16.51;59.30;98781.41;6291820;20;1799804;-50
2024/04/02 10:52:53;;;;;;;;;1.00;1.00;;;;;16.56;59.36;98785.38;6310008;20;2722229;-48
2024/04/02 10:55:19;;;;;;;;;1.50;1.50;;;;;16.11;59.47;98785.41;6278421;20;2735821;-49
2024/04/02 10:57:46;;;;;;;;;2.00;2.00;;;;;17.16;58.38;98789.28;6288509;20;2735817;-52
2024/04/02 11:00:14;;;;;;;;;2.00;1.00;;;;;16.66;57.45;98785.28;6279352;20;2726355;-46
2024/04/02 11:02:44;;;;;;;;;0.00;0.00;;;;;16.53;55.86;98795.66;6278892;20;2726359;-49
2024/04/02 11:05:16;;;;;;;;;1.00;1.00;;;;;16.28;56.13;98798.13;6280441;20;2728473;-50
2024/04/02 11:07:48;;;;;;;;;0.00;0.00;;;;;16.97;56.70;98801.19;6278709;20;2726357;-47
2024/04/02 11:10:15;;;;;;;;;1.00;1.00;;;;;16.40;56.96;98806.88;6281990;20;2730761;-50
2024/04/02 11:12:41;;;;;;;;;1.00;1.00;;;;;16.20;57.89;98811.59;6283437;20;2730680;-46
2024/04/02 11:15:10;;;;;;;;;2.00;2.00;;;;;16.79;56.76;98818.31;6283168;20;2735702;-47
2024/04/02 11:17:37;;;;;;;;;2.00;0.00;;;;;16.99;55.29;98801.88;6281879;20;2730491;-47
2024/04/02 11:20:12;;;;;;;;;2.00;2.00;;;;;16.83;55.34;98808.88;6283045;20;2739887;-47